createdAt,value
2022-12-12T00:00:08.624Z,-1.67
2022-12-12T00:02:38.067Z,-1.74
2022-12-12T00:05:05.549Z,-1.87
2022-12-12T00:07:31.367Z,-1.82
2022-12-12T00:09:57.153Z,-1.73
2022-12-12T00:12:22.936Z,-1.68
2022-12-12T00:14:48.700Z,-1.80
2022-12-12T00:17:14.507Z,-1.74
2022-12-12T00:19:40.347Z,-1.74
2022-12-12T00:22:06.112Z,-1.79
2022-12-12T00:24:31.897Z,-1.75
2022-12-12T00:26:57.626Z,-1.57
2022-12-12T00:29:23.363Z,-1.56
2022-12-12T00:31:49.182Z,-1.68
2022-12-12T00:34:14.940Z,-1.72
2022-12-12T00:36:40.746Z,-1.75
2022-12-12T00:39:06.699Z,-1.66
2022-12-12T00:41:32.469Z,-1.70
2022-12-12T00:43:58.282Z,-1.59
2022-12-12T00:46:25.172Z,-1.65
2022-12-12T00:48:54.690Z,-1.76
2022-12-12T00:51:21.978Z,-1.70
2022-12-12T00:53:48.764Z,-1.69
2022-12-12T00:56:16.482Z,-1.67
2022-12-12T00:58:42.813Z,-1.69
2022-12-12T01:01:11.342Z,-1.68
2022-12-12T01:03:39.700Z,-1.66
2022-12-12T01:06:06.154Z,-1.64
2022-12-12T01:08:32.547Z,-1.77
2022-12-12T01:10:58.345Z,-1.62
2022-12-12T01:13:25.356Z,-1.45
2022-12-12T01:15:51.485Z,-1.71
2022-12-12T01:18:18.533Z,-1.75
2022-12-12T01:20:44.812Z,-1.80
2022-12-12T01:23:11.119Z,-1.75
2022-12-12T01:25:37.350Z,-1.73
2022-12-12T01:28:04.031Z,-1.81
2022-12-12T01:30:29.925Z,-1.97
2022-12-12T01:32:55.885Z,-1.98
2022-12-12T01:35:23.236Z,-1.75
2022-12-12T01:37:49.355Z,-2.04
2022-12-12T01:40:19.545Z,-2.16
2022-12-12T01:42:46.032Z,-2.03
2022-12-12T01:45:48.880Z,-1.99
2022-12-12T01:48:14.632Z,-1.88
2022-12-12T01:50:43.143Z,-1.96
2022-12-12T01:53:10.878Z,-1.88
2022-12-12T01:55:36.757Z,-1.87
2022-12-12T01:58:02.757Z,-1.75
2022-12-12T02:00:28.574Z,-1.83
2022-12-12T02:05:57.006Z,-1.83
2022-12-12T02:08:24.779Z,-2.05
2022-12-12T02:10:51.172Z,-2.14
2022-12-12T02:13:23.615Z,-1.95
2022-12-12T02:16:23.614Z,-1.95
2022-12-12T02:19:19.766Z,-1.98
2022-12-12T02:21:48.506Z,-1.95
2022-12-12T02:24:39.141Z,-1.89
2022-12-12T02:27:23.828Z,-1.82
2022-12-12T02:30:01.772Z,-1.76
2022-12-12T02:32:37.911Z,-1.72
2022-12-12T02:35:19.537Z,-1.67
2022-12-12T02:37:56.588Z,-1.74
2022-12-12T02:40:34.339Z,-1.85
2022-12-12T02:43:14.150Z,-1.67
2022-12-12T02:45:47.042Z,-1.64
2022-12-12T02:48:12.843Z,-1.64
2022-12-12T02:50:41.514Z,-1.64
2022-12-12T02:53:07.458Z,-1.76
2022-12-12T02:55:36.372Z,-1.57
2022-12-12T02:58:05.168Z,-1.72
2022-12-12T03:00:40.077Z,-1.63
2022-12-12T03:03:44.351Z,-1.44
2022-12-12T03:06:50.744Z,-1.68
2022-12-12T03:09:39.280Z,-1.66
2022-12-12T03:12:22.228Z,-1.74
2022-12-12T03:15:16.375Z,-1.73
2022-12-12T03:17:55.387Z,-1.76
2022-12-12T03:20:46.935Z,-1.79
2022-12-12T03:23:21.789Z,-1.82
2022-12-12T03:26:11.273Z,-1.77
2022-12-12T03:28:58.762Z,-1.79
2022-12-12T03:31:30.819Z,-1.80
2022-12-12T03:34:01.566Z,-1.88
2022-12-12T03:36:31.863Z,-1.81
2022-12-12T03:39:14.853Z,-1.71
2022-12-12T03:41:47.286Z,-1.71
2022-12-12T03:44:15.898Z,-1.74
2022-12-12T03:46:48.595Z,-1.62
2022-12-12T03:49:27.147Z,-1.73
2022-12-12T03:52:25.891Z,-1.68
2022-12-12T03:54:59.891Z,-1.63
2022-12-12T03:57:35.525Z,-1.67
2022-12-12T04:00:08.031Z,-1.68
2022-12-12T04:02:55.912Z,-1.78
2022-12-12T04:06:06.963Z,-1.78
2022-12-12T04:08:34.188Z,-1.63
2022-12-12T04:11:30.463Z,-1.64
2022-12-12T04:14:10.230Z,-1.59
2022-12-12T04:16:41.337Z,-1.56
2022-12-12T04:19:43.962Z,-1.46
2022-12-12T04:22:38.455Z,-1.74
2022-12-12T04:25:16.300Z,-1.75
2022-12-12T04:27:50.010Z,-1.77
2022-12-12T04:30:16.715Z,-1.83
2022-12-12T04:32:49.076Z,-1.80
2022-12-12T04:35:17.191Z,-1.96
2022-12-12T04:37:53.284Z,-2.00
2022-12-12T04:40:31.956Z,-1.76
2022-12-12T04:43:02.606Z,-1.88
2022-12-12T04:45:33.852Z,-1.95
2022-12-12T04:48:02.655Z,-1.85
2022-12-12T04:50:31.394Z,-1.83
2022-12-12T04:53:01.435Z,-1.91
2022-12-12T04:55:32.384Z,-1.80
2022-12-12T04:57:58.635Z,-1.81
2022-12-12T05:00:29.437Z,-1.83
2022-12-12T05:03:02.970Z,-1.91
2022-12-12T05:05:31.366Z,-1.85
2022-12-12T05:08:28.921Z,-1.88
2022-12-12T05:10:58.771Z,-1.82
2022-12-12T05:13:28.633Z,-1.74
2022-12-12T05:15:57.019Z,-1.75
2022-12-12T05:18:23.364Z,-1.76
2022-12-12T05:20:50.031Z,-1.81
2022-12-12T05:23:16.012Z,-1.78
2022-12-12T05:25:41.830Z,-1.72
2022-12-12T05:28:07.642Z,-1.61
2022-12-12T05:30:33.793Z,-1.59
2022-12-12T05:32:59.802Z,-1.59
2022-12-12T05:35:26.279Z,-1.64
2022-12-12T05:37:52.464Z,-1.53
2022-12-12T05:40:19.460Z,-1.74
2022-12-12T05:42:45.260Z,-1.61
2022-12-12T05:45:11.690Z,-1.66
2022-12-12T05:47:37.736Z,-1.81
2022-12-12T05:50:05.276Z,-1.93
2022-12-12T05:52:31.320Z,-1.78
2022-12-12T05:54:57.294Z,-1.87
2022-12-12T05:57:23.726Z,-2.00
2022-12-12T05:59:49.661Z,-1.87
2022-12-12T06:02:16.096Z,-1.75
2022-12-12T06:04:42.100Z,-1.87
2022-12-12T06:07:08.617Z,-1.76
2022-12-12T06:09:35.689Z,-1.99
2022-12-12T06:12:01.787Z,-1.79
2022-12-12T06:14:27.848Z,-1.77
2022-12-12T06:16:53.695Z,-1.78
2022-12-12T06:19:20.097Z,-2.05
2022-12-12T06:21:46.544Z,-1.82
2022-12-12T06:24:12.769Z,-1.89
2022-12-12T06:26:38.685Z,-1.86
2022-12-12T06:29:04.793Z,-1.85
2022-12-12T06:31:30.803Z,-1.86
2022-12-12T06:33:56.689Z,-1.96
2022-12-12T06:36:24.348Z,-1.97
2022-12-12T06:38:52.659Z,-1.84
2022-12-12T06:41:19.353Z,-1.89
2022-12-12T06:43:45.211Z,-1.79
2022-12-12T06:46:23.609Z,-1.73
2022-12-12T06:48:50.063Z,-1.72
2022-12-12T06:51:19.620Z,-1.80
2022-12-12T06:53:46.090Z,-1.81
2022-12-12T06:56:20.746Z,-1.73
2022-12-12T06:58:47.581Z,-1.73
2022-12-12T07:01:14.974Z,-1.68
2022-12-12T07:03:41.395Z,-1.70
2022-12-12T07:06:07.660Z,-1.72
2022-12-12T07:08:34.635Z,-1.87
2022-12-12T07:11:06.133Z,-1.79
2022-12-12T07:13:32.402Z,-1.67
2022-12-12T07:15:58.438Z,-1.72
2022-12-12T07:18:24.261Z,-1.85
2022-12-12T07:20:50.096Z,-1.88
2022-12-12T07:23:15.894Z,-2.07
2022-12-12T07:25:44.104Z,-1.93
2022-12-12T07:28:12.019Z,-1.80
2022-12-12T07:30:40.053Z,-1.96
2022-12-12T07:33:06.349Z,-1.99
2022-12-12T07:35:32.472Z,-2.01
2022-12-12T07:37:58.481Z,-1.77
2022-12-12T07:40:24.543Z,-1.78
2022-12-12T07:42:50.312Z,-2.01
2022-12-12T07:45:18.419Z,-2.13
2022-12-12T07:47:44.856Z,-2.09
2022-12-12T07:50:11.057Z,-1.91
2022-12-12T07:52:37.035Z,-1.85
2022-12-12T07:55:03.223Z,-2.14
2022-12-12T07:57:30.075Z,-2.09
2022-12-12T07:59:56.866Z,-2.19
2022-12-12T08:02:23.225Z,-2.02
2022-12-12T08:04:49.138Z,-1.98
2022-12-12T08:07:15.151Z,-2.12
2022-12-12T08:09:41.072Z,-2.23
2022-12-12T08:12:07.085Z,-2.19
2022-12-12T08:14:33.512Z,-2.24
2022-12-12T08:16:59.706Z,-2.22
2022-12-12T08:19:25.506Z,-2.14
2022-12-12T08:21:51.360Z,-2.26
2022-12-12T08:24:17.535Z,-2.00
2022-12-12T08:26:44.374Z,-2.02
2022-12-12T08:29:11.051Z,-1.95
2022-12-12T08:31:38.238Z,-1.89
2022-12-12T08:34:04.853Z,-1.67
2022-12-12T08:36:34.121Z,-1.80
2022-12-12T08:39:11.983Z,-1.84
2022-12-12T08:41:41.193Z,-1.66
2022-12-12T08:44:09.396Z,-1.67
2022-12-12T08:46:35.247Z,-1.80
2022-12-12T08:49:01.032Z,-1.82
2022-12-12T08:51:26.966Z,-1.79
2022-12-12T08:53:53.372Z,-1.88
2022-12-12T08:56:21.010Z,-1.81
2022-12-12T08:58:46.866Z,-1.58
2022-12-12T09:01:15.116Z,-1.37
2022-12-12T09:03:41.102Z,-1.31
2022-12-12T09:06:08.389Z,-1.26
2022-12-12T09:08:34.287Z,-1.14
2022-12-12T09:11:00.125Z,-1.31
2022-12-12T09:13:25.977Z,-1.07
2022-12-12T09:15:52.439Z,-1.15
2022-12-12T09:18:19.943Z,-1.19
2022-12-12T09:20:49.984Z,-1.09
2022-12-12T09:23:16.673Z,-1.01
2022-12-12T09:25:43.028Z,-0.94
2022-12-12T09:28:11.245Z,-1.04
2022-12-12T09:30:37.530Z,-0.78
2022-12-12T09:33:03.568Z,-0.91
2022-12-12T09:35:29.493Z,-0.91
2022-12-12T09:37:55.283Z,-0.66
2022-12-12T09:40:30.539Z,-0.60
2022-12-12T09:42:56.446Z,-0.29
2022-12-12T09:45:22.786Z,-0.36
2022-12-12T09:47:57.758Z,-0.69
2022-12-12T09:50:34.504Z,-0.69
2022-12-12T09:53:09.791Z,-0.66
2022-12-12T09:55:57.521Z,-0.44
2022-12-12T09:58:50.122Z,-0.73
2022-12-12T10:01:29.311Z,-0.88
2022-12-12T10:04:09.821Z,-0.93
2022-12-12T10:06:46.710Z,-0.96
2022-12-12T10:09:47.940Z,-0.89
2022-12-12T10:12:16.248Z,-1.20
2022-12-12T10:14:45.990Z,-1.19
2022-12-12T10:17:18.017Z,-0.60
2022-12-12T10:19:55.235Z,-0.49
2022-12-12T10:22:51.370Z,-0.46
2022-12-12T10:25:32.203Z,-0.57
2022-12-12T10:28:15.430Z,-0.76
2022-12-12T10:31:09.366Z,-0.72
2022-12-12T10:33:44.418Z,-1.11
2022-12-12T10:36:40.980Z,-1.52
2022-12-12T10:39:54.098Z,-1.19
2022-12-12T10:42:50.460Z,-1.08
2022-12-12T10:45:28.688Z,-1.30
2022-12-12T10:47:54.577Z,-1.52
2022-12-12T10:50:27.093Z,-1.40
2022-12-12T10:52:53.249Z,-1.21
2022-12-12T10:55:24.465Z,-0.99
2022-12-12T10:58:02.973Z,-0.96
2022-12-12T11:00:41.600Z,-0.88
2022-12-12T11:03:27.447Z,-0.98
2022-12-12T11:05:55.559Z,-1.14
2022-12-12T11:08:31.214Z,-0.91
2022-12-12T11:11:18.809Z,-0.86
2022-12-12T11:13:58.584Z,-0.79
2022-12-12T11:16:30.101Z,-0.83
2022-12-12T11:19:04.404Z,-0.88
2022-12-12T11:21:35.365Z,-0.88
2022-12-12T11:24:08.632Z,-0.79
2022-12-12T11:26:55.422Z,-0.47
2022-12-12T11:29:30.468Z,-0.33
2022-12-12T11:31:58.006Z,-0.16
2022-12-12T11:34:26.964Z,0.61
2022-12-12T11:36:53.737Z,1.59
2022-12-12T11:39:31.988Z,1.20
2022-12-12T11:42:04.478Z,0.87
2022-12-12T11:44:35.668Z,0.74
2022-12-12T11:47:27.712Z,0.37
2022-12-12T11:49:59.340Z,0.37
2022-12-12T11:52:31.020Z,0.61
2022-12-12T11:54:58.021Z,1.15
2022-12-12T11:58:07.721Z,2.57
2022-12-12T12:01:01.380Z,3.54
2022-12-12T12:04:02.423Z,4.48
2022-12-12T12:06:55.426Z,5.51
2022-12-12T12:09:42.864Z,6.32
2022-12-12T12:12:27.471Z,5.77
2022-12-12T12:15:14.097Z,6.02
2022-12-12T12:18:16.970Z,6.27
2022-12-12T12:21:13.022Z,5.92
2022-12-12T12:23:58.598Z,4.67
2022-12-12T12:26:51.048Z,3.57
2022-12-12T12:29:38.613Z,3.59
2022-12-12T12:32:16.219Z,3.43
2022-12-12T12:35:01.869Z,2.89
2022-12-12T12:37:46.110Z,2.09
2022-12-12T12:40:40.949Z,1.69
2022-12-12T12:43:42.273Z,1.54
2022-12-12T12:46:29.173Z,1.33
2022-12-12T12:49:24.115Z,1.19
2022-12-12T12:51:56.695Z,1.31
2022-12-12T12:54:26.277Z,1.17
2022-12-12T12:57:13.990Z,0.66
2022-12-12T12:59:43.359Z,0.43
2022-12-12T13:02:34.199Z,0.57
2022-12-12T13:05:16.052Z,0.52
2022-12-12T13:08:01.642Z,0.72
2022-12-12T13:10:29.072Z,1.21
2022-12-12T13:13:11.509Z,1.62
2022-12-12T13:15:46.016Z,1.51
2022-12-12T13:18:14.784Z,1.50
2022-12-12T13:21:02.364Z,1.36
2022-12-12T13:23:46.741Z,1.42
2022-12-12T13:26:23.060Z,1.20
2022-12-12T13:28:58.992Z,0.87
2022-12-12T13:31:55.580Z,0.68
2022-12-12T13:34:26.006Z,0.56
2022-12-12T13:36:53.173Z,0.23
2022-12-12T13:39:30.992Z,0.48
2022-12-12T13:42:00.977Z,0.19
2022-12-12T13:44:35.731Z,-0.02
2022-12-12T13:47:03.732Z,-0.18
2022-12-12T13:49:31.966Z,-0.20
2022-12-12T13:52:31.977Z,-0.15
2022-12-12T13:55:13.213Z,-0.46
2022-12-12T13:58:07.274Z,-0.69
2022-12-12T14:00:35.355Z,-0.48
2022-12-12T14:03:10.214Z,-0.56
2022-12-12T14:05:41.629Z,-0.51
2022-12-12T14:08:13.467Z,-0.72
2022-12-12T14:10:45.626Z,-0.80
2022-12-12T14:13:20.506Z,-0.84
2022-12-12T14:15:48.764Z,-0.67
2022-12-12T14:18:30.349Z,-0.67
2022-12-12T14:21:09.878Z,-0.89
2022-12-12T14:23:52.559Z,-0.86
2022-12-12T14:26:27.140Z,-1.03
2022-12-12T14:29:33.206Z,-1.07
2022-12-12T14:32:10.979Z,-1.08
2022-12-12T14:35:01.363Z,-1.15
2022-12-12T14:37:51.245Z,-1.37
2022-12-12T14:40:30.528Z,-1.41
2022-12-12T14:43:18.496Z,-1.41
2022-12-12T14:45:50.068Z,-1.55
2022-12-12T14:48:24.491Z,-1.34
2022-12-12T14:50:58.144Z,-1.58
2022-12-12T14:53:33.100Z,-1.47
2022-12-12T14:56:02.801Z,-1.45
2022-12-12T14:58:32.816Z,-1.44
2022-12-12T15:01:01.668Z,-1.34
2022-12-12T15:03:49.094Z,-1.56
2022-12-12T15:06:25.878Z,-1.42
2022-12-12T15:08:52.292Z,-1.63
2022-12-12T15:11:24.007Z,-1.42
2022-12-12T15:13:50.828Z,-1.63
2022-12-12T15:16:18.362Z,-2.01
2022-12-12T15:18:44.397Z,-1.86
2022-12-12T15:21:10.301Z,-1.64
2022-12-12T15:23:36.178Z,-1.75
2022-12-12T15:26:02.131Z,-1.61
2022-12-12T15:28:28.084Z,-1.83
2022-12-12T15:30:54.528Z,-1.71
2022-12-12T15:33:22.905Z,-1.46
2022-12-12T15:36:02.190Z,-1.48
2022-12-12T15:38:29.387Z,-1.87
2022-12-12T15:40:58.309Z,-1.82
2022-12-12T15:43:27.086Z,-1.78
2022-12-12T15:46:06.166Z,-1.81
2022-12-12T15:48:32.068Z,-1.90
2022-12-12T15:51:06.298Z,-2.02
2022-12-12T15:53:41.221Z,-1.75
2022-12-12T15:56:13.588Z,-2.25
2022-12-12T15:58:46.040Z,-2.26
2022-12-12T16:01:20.081Z,-1.68
2022-12-12T16:04:01.986Z,-1.81
2022-12-12T16:06:36.771Z,-1.73
2022-12-12T16:09:11.572Z,-2.25
2022-12-12T16:11:37.512Z,-2.36
2022-12-12T16:14:05.070Z,-2.20
2022-12-12T16:16:46.576Z,-2.26
2022-12-12T16:19:30.969Z,-2.35
2022-12-12T16:22:02.683Z,-2.31
2022-12-12T16:24:28.553Z,-2.48
2022-12-12T16:26:59.386Z,-2.33
2022-12-12T16:29:25.591Z,-2.09
2022-12-12T16:31:51.719Z,-2.03
2022-12-12T16:34:18.189Z,-2.18
2022-12-12T16:36:44.193Z,-2.38
2022-12-12T16:39:10.892Z,-2.22
2022-12-12T16:41:36.843Z,-2.21
2022-12-12T16:44:02.741Z,-2.11
2022-12-12T16:46:28.668Z,-2.17
2022-12-12T16:48:56.473Z,-2.30
2022-12-12T16:51:29.487Z,-2.35
2022-12-12T16:53:55.608Z,-2.35
2022-12-12T16:56:21.513Z,-2.39
2022-12-12T16:58:47.442Z,-2.44
2022-12-12T17:01:16.201Z,-2.53
2022-12-12T17:03:42.462Z,-2.55
2022-12-12T17:06:08.515Z,-2.52
2022-12-12T17:08:34.608Z,-2.53
2022-12-12T17:11:10.688Z,-2.51
2022-12-12T17:13:42.101Z,-2.57
2022-12-12T17:16:08.036Z,-2.60
2022-12-12T17:18:33.933Z,-2.60
2022-12-12T17:20:59.793Z,-2.69
2022-12-12T17:23:28.246Z,-2.46
2022-12-12T17:26:00.715Z,-2.47
2022-12-12T17:28:30.228Z,-2.56
2022-12-12T17:30:56.161Z,-2.47
2022-12-12T17:33:22.039Z,-2.49
2022-12-12T17:36:04.890Z,-2.39
2022-12-12T17:38:31.183Z,-2.27
2022-12-12T17:41:01.419Z,-2.44
2022-12-12T17:43:27.625Z,-2.22
2022-12-12T17:46:08.914Z,-2.34
2022-12-12T17:48:35.401Z,-2.13
2022-12-12T17:51:04.507Z,-2.23
2022-12-12T17:53:35.764Z,-2.42
2022-12-12T17:56:11.607Z,-2.41
2022-12-12T17:58:40.235Z,-2.42
2022-12-12T18:01:16.186Z,-2.73
2022-12-12T18:03:42.969Z,-2.67
2022-12-12T18:06:09.948Z,-2.77
2022-12-12T18:08:36.606Z,-2.60
2022-12-12T18:11:06.873Z,-2.71
2022-12-12T18:13:32.780Z,-2.68
2022-12-12T18:15:58.994Z,-2.45
2022-12-12T18:18:26.073Z,-2.44
2022-12-12T18:20:52.421Z,-2.77
2022-12-12T18:23:19.105Z,-2.63
2022-12-12T18:25:46.169Z,-2.80
2022-12-12T18:28:12.807Z,-2.85
2022-12-12T18:30:41.800Z,-2.91
2022-12-12T18:33:08.164Z,-2.68
2022-12-12T18:35:34.077Z,-2.59
2022-12-12T18:38:00.419Z,-2.82
2022-12-12T18:40:27.267Z,-2.88
2022-12-12T18:42:53.152Z,-2.94
2022-12-12T18:45:19.043Z,-2.92
2022-12-12T18:47:46.415Z,-2.91
2022-12-12T18:50:13.111Z,-2.90
2022-12-12T18:52:39.015Z,-2.76
2022-12-12T18:55:05.394Z,-2.73
2022-12-12T18:57:31.319Z,-2.94
2022-12-12T18:59:57.228Z,-2.82
2022-12-12T19:02:23.147Z,-2.82
2022-12-12T19:04:49.640Z,-2.91
2022-12-12T19:07:17.811Z,-3.07
2022-12-12T19:09:46.406Z,-2.93
2022-12-12T19:12:12.418Z,-2.81
2022-12-12T19:15:08.220Z,-2.80
2022-12-12T19:17:26.408Z,-2.88
2022-12-12T19:19:53.366Z,-2.87
2022-12-12T19:22:43.774Z,-3.05
2022-12-12T19:25:05.613Z,-2.78
2022-12-12T19:27:31.567Z,-3.00
2022-12-12T19:29:57.485Z,-3.03
2022-12-12T19:32:23.340Z,-2.80
2022-12-12T19:34:49.196Z,-2.75
2022-12-12T19:37:14.976Z,-2.81
2022-12-12T19:39:41.289Z,-2.81
2022-12-12T19:42:07.188Z,-2.83
2022-12-12T19:44:33.044Z,-2.97
2022-12-12T19:46:58.882Z,-2.95
2022-12-12T19:49:24.704Z,-3.03
2022-12-12T19:51:50.656Z,-3.04
2022-12-12T19:54:19.126Z,-3.19
2022-12-12T19:56:45.771Z,-3.18
2022-12-12T19:59:14.227Z,-3.03
2022-12-12T20:01:40.985Z,-3.07
2022-12-12T20:04:12.837Z,-3.11
2022-12-12T20:06:45.112Z,-3.26
2022-12-12T20:09:33.885Z,-3.13
2022-12-12T20:12:00.348Z,-3.06
2022-12-12T20:14:29.884Z,-3.14
2022-12-12T20:16:56.430Z,-3.28
2022-12-12T20:19:24.263Z,-3.24
2022-12-12T20:22:05.934Z,-3.31
2022-12-12T20:24:33.419Z,-3.32
2022-12-12T20:27:02.254Z,-3.57
2022-12-12T20:29:28.180Z,-3.52
2022-12-12T20:31:54.100Z,-3.48
2022-12-12T20:34:23.718Z,-3.59
2022-12-12T20:36:49.799Z,-3.54
2022-12-12T20:39:18.798Z,-3.36
2022-12-12T20:41:44.875Z,-3.62
2022-12-12T20:44:11.951Z,-3.71
2022-12-12T20:46:40.053Z,-3.59
2022-12-12T20:49:08.676Z,-3.62
2022-12-12T20:54:22.859Z,-3.52
2022-12-12T20:56:49.164Z,-3.55
2022-12-12T20:59:15.145Z,-3.58
2022-12-12T21:01:41.105Z,-3.50
2022-12-12T21:04:08.636Z,-3.42
2022-12-12T21:06:50.427Z,-3.56
2022-12-12T21:09:23.849Z,-3.48
2022-12-12T21:11:56.339Z,-3.46
2022-12-12T21:14:22.652Z,-3.53
2022-12-12T21:16:48.519Z,-3.62
2022-12-12T21:19:14.534Z,-3.63
2022-12-12T21:21:42.463Z,-3.64
2022-12-12T21:24:10.731Z,-3.59
2022-12-12T21:26:36.579Z,-3.87
2022-12-12T21:29:04.081Z,-3.55
2022-12-12T21:31:33.135Z,-3.81
2022-12-12T21:33:59.736Z,-3.75
2022-12-12T21:36:27.497Z,-3.75
2022-12-12T21:38:54.645Z,-3.84
2022-12-12T21:41:22.088Z,-3.75
2022-12-12T21:43:49.041Z,-3.80
2022-12-12T21:46:20.340Z,-3.94
2022-12-12T21:49:06.953Z,-3.84
2022-12-12T21:51:32.919Z,-3.90
2022-12-12T21:53:58.817Z,-3.75
2022-12-12T21:56:24.602Z,-3.75
2022-12-12T21:58:50.553Z,-3.79
2022-12-12T22:01:18.943Z,-3.74
2022-12-12T22:03:47.649Z,-3.78
2022-12-12T22:06:13.427Z,-3.91
2022-12-12T22:08:40.024Z,-3.84
2022-12-12T22:11:06.956Z,-3.85
2022-12-12T22:13:39.544Z,-3.97
2022-12-12T22:16:09.806Z,-3.99
2022-12-12T22:18:36.110Z,-3.98
2022-12-12T22:21:06.956Z,-3.83
2022-12-12T22:23:38.135Z,-3.84
2022-12-12T22:26:24.146Z,-3.80
2022-12-12T22:28:50.899Z,-3.83
2022-12-12T22:31:18.184Z,-4.09
2022-12-12T22:33:45.003Z,-4.16
2022-12-12T22:36:12.151Z,-4.01
2022-12-12T22:38:38.641Z,-3.95
2022-12-12T22:41:06.299Z,-4.05
2022-12-12T22:43:32.593Z,-4.23
2022-12-12T22:46:07.374Z,-3.84
2022-12-12T22:48:34.229Z,-4.19
2022-12-12T22:51:14.056Z,-4.37
2022-12-12T22:53:44.189Z,-4.17
2022-12-12T22:56:11.323Z,-4.48
2022-12-12T22:58:37.262Z,-4.43
2022-12-12T23:01:10.770Z,-4.34
2022-12-12T23:03:37.095Z,-4.29
2022-12-12T23:06:09.240Z,-4.28
2022-12-12T23:08:35.056Z,-4.30
2022-12-12T23:11:12.598Z,-4.28
2022-12-12T23:13:42.000Z,-4.22
2022-12-12T23:16:09.655Z,-4.29
2022-12-12T23:18:37.230Z,-4.44
2022-12-12T23:21:05.324Z,-4.58
2022-12-12T23:23:31.212Z,-4.47
2022-12-12T23:26:05.737Z,-4.65
2022-12-12T23:28:31.604Z,-4.41
2022-12-12T23:30:57.573Z,-4.39
2022-12-12T23:33:23.836Z,-4.38
2022-12-12T23:35:50.045Z,-4.30
2022-12-12T23:38:15.937Z,-4.31
2022-12-12T23:40:41.925Z,-4.34
2022-12-12T23:43:07.880Z,-4.41
2022-12-12T23:45:37.880Z,-4.55
2022-12-12T23:48:05.089Z,-4.49
2022-12-12T23:50:32.322Z,-4.44
2022-12-12T23:52:58.663Z,-4.43
2022-12-12T23:55:24.580Z,-4.48
2022-12-12T23:57:51.239Z,-4.43
